Castlegar, British Columbia

5:13 PM PST on February 09, 2016 (GMT -0800)
Castlegar | | Change Station
CLOSE
Current Station
Airport
Location: Castlegar,
Elevation: 1624 ft
Nearby Weather Stations

Elev 1624 ft 49.30 °N, 117.63 °W | Updated 13 minutes ago

Mostly Cloudy
Mostly Cloudy
34 °F
Feels Like 28 °F
N
7
Wind Variable Wind from NNE

Today
High -- | Low -- °F
--% Chance of Precip.
Yesterday
High -- | Low -- °F
Precip. -- in
Pressure 30.39 in
Visibility 15.0 miles
Clouds Mostly Cloudy 24000 ft
Windchill 28 °F
Dew Point 30 °F
Humidity 87%
Rainfall 0.00 in
Snow Depth Not available.
7:10 AM 4:59 PM
Waxing Crescent, 3% visible
METAR CYCG 100100Z 02006KT 15SM BKN240 01/M01 A3031 RMK CI5 LAST OBS/NEXT 101400UTC SLP290
Pressure 30.39 in
Visibility 15.0 miles
Clouds Mostly Cloudy 24000 ft
Windchill 28 °F
Dew Point 30 °F
Humidity 87%
Rainfall 0.00 in
Snow Depth Not available.
7:10 AM 4:59 PM
Waxing Crescent, 3% visible
METAR CYCG 100100Z 02006KT 15SM BKN240 01/M01 A3031 RMK CI5 LAST OBS/NEXT 101400UTC SLP290

10-Day Weather Forecast

Almanac

Astronomy

Feb. 09, 2016 Rise Set
Actual Time
Civil Twilight
Nautical Twilight
Astronomical Twilight
Moon
Length of Visible Light
Length of Day
Tomorrow will be .
, % of the Moon is Illuminated

Today's Extremes

Country Highs Country Lows

Community

WunderPhotos

Upload Photos

1,891,752 photos uploaded!

WunderBlog® & News

Nearby

Air Quality

  Air Quality AQ Index Pollutant
Not available.

Snow Depth

Station Depth Elevation

Earthquake Activity

City Distance Mag. Time & Date
Minimum magnitude displayed is 2.5.

Coastal Water Temperatures

Place Temperature

Stations

Nearby Weather Stations

Station Location Temp. Windchill Dew Point Humidity Wind Precip. Elev Updated Type
                   

Watches & Warnings

There are currently no watches in effect.